createdAt,value
2023-04-17T00:00:32.792Z,21.21
2023-04-17T00:01:32.811Z,21.19
2023-04-17T00:02:32.908Z,21.20
2023-04-17T00:03:32.952Z,21.20
2023-04-17T00:04:33.042Z,21.20
2023-04-17T00:05:32.874Z,21.20
2023-04-17T00:06:32.857Z,21.19
2023-04-17T00:07:32.913Z,21.20
2023-04-17T00:08:32.952Z,21.20
2023-04-17T00:09:32.960Z,21.19
2023-04-17T00:10:32.993Z,21.20
2023-04-17T00:11:32.984Z,21.19
2023-04-17T00:12:33.005Z,21.20
2023-04-17T00:13:33.043Z,21.19
2023-04-17T00:14:33.041Z,21.18
2023-04-17T00:15:33.101Z,21.19
2023-04-17T00:16:33.212Z,21.19
2023-04-17T00:17:33.193Z,21.19
2023-04-17T00:18:33.132Z,21.19
2023-04-17T00:19:33.167Z,21.19
2023-04-17T00:20:33.186Z,21.19
2023-04-17T00:21:33.165Z,21.19
2023-04-17T00:22:33.207Z,21.18
2023-04-17T00:23:33.167Z,21.19
2023-04-17T00:24:33.213Z,21.18
2023-04-17T00:25:33.199Z,21.19
2023-04-17T00:26:33.202Z,21.19
2023-04-17T00:27:33.209Z,21.18
2023-04-17T00:28:33.177Z,21.19
2023-04-17T00:29:33.216Z,21.18
2023-04-17T00:30:33.229Z,21.18
2023-04-17T00:31:33.240Z,21.18
2023-04-17T00:32:33.261Z,21.18
2023-04-17T00:33:33.297Z,21.18
2023-04-17T00:34:33.255Z,21.18
2023-04-17T00:35:33.242Z,21.18
2023-04-17T00:36:33.264Z,21.18
2023-04-17T00:37:33.265Z,21.18
2023-04-17T00:38:33.249Z,21.17
2023-04-17T00:39:33.283Z,21.18
2023-04-17T00:40:33.279Z,21.17
2023-04-17T00:41:33.294Z,21.18
2023-04-17T00:42:33.318Z,21.17
2023-04-17T00:43:33.319Z,21.17
2023-04-17T00:44:33.366Z,21.17
2023-04-17T00:45:33.448Z,21.17
2023-04-17T00:46:33.411Z,21.17
2023-04-17T00:47:33.523Z,21.17
2023-04-17T00:48:33.451Z,21.17
2023-04-17T00:49:33.498Z,21.17
2023-04-17T00:50:33.573Z,21.17
2023-04-17T00:51:33.489Z,21.16
2023-04-17T00:52:33.507Z,21.16
2023-04-17T00:53:33.553Z,21.16
2023-04-17T00:54:33.518Z,21.17
2023-04-17T00:55:33.495Z,21.16
2023-04-17T00:56:33.500Z,21.16
2023-04-17T00:57:33.557Z,21.16
2023-04-17T00:58:33.513Z,21.16
2023-04-17T00:59:33.577Z,21.15
2023-04-17T01:00:33.562Z,21.16
2023-04-17T01:01:33.582Z,21.16
2023-04-17T01:02:33.672Z,21.15
2023-04-17T01:03:33.747Z,21.15
2023-04-17T01:04:33.654Z,21.16
2023-04-17T01:05:33.621Z,21.15
2023-04-17T01:06:33.588Z,21.15
2023-04-17T01:07:33.613Z,21.15
2023-04-17T01:08:33.570Z,21.15
2023-04-17T01:09:33.590Z,21.15
2023-04-17T01:10:33.600Z,21.15
2023-04-17T01:11:33.651Z,21.16
2023-04-17T01:12:33.638Z,21.15
2023-04-17T01:13:33.646Z,21.15
2023-04-17T01:14:33.652Z,21.15
2023-04-17T01:15:33.675Z,21.14
2023-04-17T01:16:33.721Z,21.15
2023-04-17T01:17:33.719Z,21.14
2023-04-17T01:18:33.650Z,21.15
2023-04-17T01:19:33.660Z,21.14
2023-04-17T01:20:33.679Z,21.13
2023-04-17T01:21:33.658Z,21.14
2023-04-17T01:22:33.664Z,21.14
2023-04-17T01:23:33.668Z,21.14
2023-04-17T01:24:33.686Z,21.13
2023-04-17T01:25:33.692Z,21.13
2023-04-17T01:26:33.688Z,21.14
2023-04-17T01:27:33.678Z,21.13
2023-04-17T01:28:33.704Z,21.13
2023-04-17T01:29:33.693Z,21.13
2023-04-17T01:30:33.732Z,21.13
2023-04-17T01:31:33.721Z,21.13
2023-04-17T01:32:33.782Z,21.13
2023-04-17T01:33:33.749Z,21.13
2023-04-17T01:34:35.634Z,21.12
2023-04-17T01:35:33.722Z,21.13
2023-04-17T01:36:33.741Z,21.13
2023-04-17T01:37:33.711Z,21.12
2023-04-17T01:38:33.716Z,21.13
2023-04-17T01:39:33.703Z,21.12
2023-04-17T01:40:33.708Z,21.12
2023-04-17T01:41:33.718Z,21.12
2023-04-17T01:42:33.663Z,21.13
2023-04-17T01:43:33.687Z,21.12
2023-04-17T01:44:33.663Z,21.12
2023-04-17T01:45:33.680Z,21.12
2023-04-17T01:46:33.756Z,21.12
2023-04-17T01:47:33.644Z,21.12
2023-04-17T01:48:33.640Z,21.12
2023-04-17T01:49:33.612Z,21.12
2023-04-17T01:50:33.641Z,21.12
2023-04-17T01:51:33.612Z,21.12
2023-04-17T01:52:33.639Z,21.12
2023-04-17T01:53:33.616Z,21.12
2023-04-17T01:54:33.623Z,21.12
2023-04-17T01:55:33.579Z,21.11
2023-04-17T01:56:33.595Z,21.12
2023-04-17T01:57:33.589Z,21.11
2023-04-17T01:58:33.608Z,21.11
2023-04-17T01:59:33.591Z,21.11
2023-04-17T02:00:33.573Z,21.12
2023-04-17T02:01:33.654Z,21.11
2023-04-17T02:02:33.673Z,21.12
2023-04-17T02:03:33.707Z,21.11
2023-04-17T02:04:33.572Z,21.11
2023-04-17T02:05:33.545Z,21.11
2023-04-17T02:06:33.527Z,21.10
2023-04-17T02:07:33.539Z,21.11
2023-04-17T02:08:33.588Z,21.11
2023-04-17T02:09:33.515Z,21.11
2023-04-17T02:10:33.523Z,21.11
2023-04-17T02:11:33.504Z,21.10
2023-04-17T02:12:33.491Z,21.12
2023-04-17T02:13:33.494Z,21.10
2023-04-17T02:14:33.510Z,21.10
2023-04-17T02:15:33.613Z,21.11
2023-04-17T02:16:33.569Z,21.11
2023-04-17T02:17:33.500Z,21.10
2023-04-17T02:18:33.472Z,21.10
2023-04-17T02:19:33.461Z,21.09
2023-04-17T02:20:33.456Z,21.10
2023-04-17T02:21:33.443Z,21.09
2023-04-17T02:22:33.456Z,21.10
2023-04-17T02:23:33.402Z,21.10
2023-04-17T02:24:33.428Z,21.09
2023-04-17T02:25:33.409Z,21.10
2023-04-17T02:26:33.421Z,21.10
2023-04-17T02:27:33.386Z,21.09
2023-04-17T02:28:33.395Z,21.09
2023-04-17T02:29:33.394Z,21.09
2023-04-17T02:30:33.406Z,21.09
2023-04-17T02:31:33.433Z,21.08
2023-04-17T02:32:33.494Z,21.09
2023-04-17T02:33:33.359Z,21.09
2023-04-17T02:34:33.320Z,21.09
2023-04-17T02:35:33.347Z,21.09
2023-04-17T02:36:33.344Z,21.09
2023-04-17T02:37:33.345Z,21.09
2023-04-17T02:38:33.309Z,21.09
2023-04-17T02:39:33.281Z,21.09
2023-04-17T02:40:33.381Z,21.08
2023-04-17T02:41:33.317Z,21.08
2023-04-17T02:42:33.300Z,21.09
2023-04-17T02:43:33.292Z,21.09
2023-04-17T02:44:33.261Z,21.09
2023-04-17T02:45:33.285Z,21.07
2023-04-17T02:46:33.288Z,21.08
2023-04-17T02:47:33.348Z,21.08
2023-04-17T02:48:33.262Z,21.08
2023-04-17T02:49:33.240Z,21.08
2023-04-17T02:50:33.249Z,21.07
2023-04-17T02:51:33.217Z,21.07
2023-04-17T02:52:33.275Z,21.08
2023-04-17T02:53:33.216Z,21.08
2023-04-17T02:54:33.195Z,21.08
2023-04-17T02:55:33.177Z,21.08
2023-04-17T02:56:33.176Z,21.08
2023-04-17T02:57:33.192Z,21.08
2023-04-17T02:58:33.180Z,21.08
2023-04-17T02:59:33.151Z,21.07
2023-04-17T03:00:33.212Z,21.07
2023-04-17T03:01:33.227Z,21.08
2023-04-17T03:02:33.251Z,21.07
2023-04-17T03:03:33.266Z,21.07
2023-04-17T03:04:33.134Z,21.07
2023-04-17T03:05:33.153Z,21.07
2023-04-17T03:06:33.143Z,21.07
2023-04-17T03:07:33.142Z,21.07
2023-04-17T03:08:33.201Z,21.08
2023-04-17T03:09:33.117Z,21.07
2023-04-17T03:10:33.109Z,21.07
2023-04-17T03:11:33.103Z,21.07
2023-04-17T03:12:33.187Z,21.07
2023-04-17T03:13:33.112Z,21.07
2023-04-17T03:14:33.088Z,21.06
2023-04-17T03:15:33.079Z,21.07
2023-04-17T03:16:33.166Z,21.07
2023-04-17T03:17:33.083Z,21.06
2023-04-17T03:18:33.041Z,21.06
2023-04-17T03:19:33.068Z,21.06
2023-04-17T03:20:33.060Z,21.06
2023-04-17T03:21:33.043Z,21.06
2023-04-17T03:22:33.049Z,21.06
2023-04-17T03:23:33.026Z,21.06
2023-04-17T03:24:33.019Z,21.06
2023-04-17T03:25:33.022Z,21.06
2023-04-17T03:26:32.999Z,21.06
2023-04-17T03:27:33.007Z,21.06
2023-04-17T03:28:33.007Z,21.07
2023-04-17T03:29:33.007Z,21.06
2023-04-17T03:30:33.002Z,21.05
2023-04-17T03:31:32.993Z,21.05
2023-04-17T03:32:32.964Z,21.05
2023-04-17T03:33:32.937Z,21.06
2023-04-17T03:34:32.962Z,21.05
2023-04-17T03:35:32.965Z,21.05
2023-04-17T03:36:32.954Z,21.05
2023-04-17T03:37:32.932Z,21.05
2023-04-17T03:38:32.945Z,21.05
2023-04-17T03:39:32.921Z,21.05
2023-04-17T03:40:33.712Z,21.05
2023-04-17T03:41:32.930Z,21.05
2023-04-17T03:42:32.902Z,21.05
2023-04-17T03:43:32.888Z,21.04
2023-04-17T03:44:32.920Z,21.04
2023-04-17T03:45:32.925Z,21.04
2023-04-17T03:46:32.857Z,21.04
2023-04-17T03:47:32.973Z,21.04
2023-04-17T03:48:32.871Z,21.04
2023-04-17T03:49:32.887Z,21.04
2023-04-17T03:50:32.920Z,21.04
2023-04-17T03:51:32.864Z,21.05
2023-04-17T03:52:32.857Z,21.04
2023-04-17T03:53:32.845Z,21.04
2023-04-17T03:54:32.834Z,21.04
2023-04-17T03:55:32.809Z,21.04
2023-04-17T03:56:32.836Z,21.05
2023-04-17T03:57:32.835Z,21.04
2023-04-17T03:58:32.803Z,21.04
2023-04-17T03:59:32.780Z,21.04
2023-04-17T04:00:32.767Z,21.04
2023-04-17T04:01:32.865Z,21.04
2023-04-17T04:02:32.818Z,21.03
2023-04-17T04:03:33.025Z,21.04
2023-04-17T04:04:32.894Z,21.03
2023-04-17T04:05:32.770Z,21.03
2023-04-17T04:06:32.816Z,21.03
2023-04-17T04:07:32.729Z,21.03
2023-04-17T04:08:32.704Z,21.03
2023-04-17T04:09:32.771Z,21.03
2023-04-17T04:10:32.742Z,21.03
2023-04-17T04:11:32.722Z,21.03
2023-04-17T04:12:32.707Z,21.03
2023-04-17T04:13:32.708Z,21.03
2023-04-17T04:14:32.688Z,21.03
2023-04-17T04:15:32.683Z,21.03
2023-04-17T04:16:32.710Z,21.03
2023-04-17T04:17:32.724Z,21.03
2023-04-17T04:18:32.659Z,21.02
2023-04-17T04:19:32.619Z,21.03
2023-04-17T04:20:32.634Z,21.02
2023-04-17T04:21:32.646Z,21.02
2023-04-17T04:22:32.635Z,21.02
2023-04-17T04:23:32.647Z,21.02
2023-04-17T04:24:32.601Z,21.02
2023-04-17T04:25:32.602Z,21.02
2023-04-17T04:26:32.607Z,21.02
2023-04-17T04:27:32.621Z,21.02
2023-04-17T04:28:32.678Z,21.02
2023-04-17T04:29:32.680Z,21.02
2023-04-17T04:30:32.693Z,21.02
2023-04-17T04:31:32.716Z,21.03
2023-04-17T04:32:32.744Z,21.02
2023-04-17T04:33:32.774Z,21.02
2023-04-17T04:34:32.805Z,21.02
2023-04-17T04:35:32.858Z,21.02
2023-04-17T04:36:32.849Z,21.02
2023-04-17T04:37:32.847Z,21.02
2023-04-17T04:38:33.130Z,21.02
2023-04-17T04:39:32.864Z,21.02
2023-04-17T04:40:32.907Z,21.02
2023-04-17T04:41:32.961Z,21.02
2023-04-17T04:42:32.985Z,21.02
2023-04-17T04:43:32.962Z,21.01
2023-04-17T04:44:32.992Z,21.02
2023-04-17T04:45:32.973Z,21.02
2023-04-17T04:46:33.039Z,21.02
2023-04-17T04:47:33.039Z,21.02
2023-04-17T04:48:33.030Z,21.01
2023-04-17T04:49:32.982Z,21.02
2023-04-17T04:50:33.023Z,21.02
2023-04-17T04:51:33.034Z,21.01
2023-04-17T04:52:33.025Z,21.02
2023-04-17T04:53:33.024Z,21.01
2023-04-17T04:54:32.996Z,21.02
2023-04-17T04:55:32.985Z,21.01
2023-04-17T04:56:33.179Z,21.02
2023-04-17T04:57:33.020Z,21.01
2023-04-17T04:58:32.996Z,21.01
2023-04-17T04:59:33.014Z,21.01
2023-04-17T05:00:33.013Z,21.01
2023-04-17T05:01:33.118Z,21.01
2023-04-17T05:02:33.160Z,21.01
2023-04-17T05:03:33.176Z,21.01
2023-04-17T05:04:33.109Z,21.01
2023-04-17T05:05:33.034Z,21.01
2023-04-17T05:06:33.059Z,21.01
2023-04-17T05:07:33.037Z,21.00
2023-04-17T05:08:33.062Z,21.01
2023-04-17T05:09:33.022Z,21.01
2023-04-17T05:10:33.081Z,21.01
2023-04-17T05:11:33.077Z,21.01
2023-04-17T05:12:33.050Z,21.00
2023-04-17T05:13:33.081Z,21.00
2023-04-17T05:14:33.078Z,21.00
2023-04-17T05:15:33.109Z,21.00
2023-04-17T05:16:33.145Z,21.00
2023-04-17T05:17:33.109Z,21.01
2023-04-17T05:18:33.125Z,21.00
2023-04-17T05:19:33.124Z,21.01
2023-04-17T05:20:33.096Z,21.01
2023-04-17T05:21:33.101Z,21.01
2023-04-17T05:22:33.088Z,21.01
2023-04-17T05:23:33.102Z,21.01
2023-04-17T05:24:33.136Z,21.00
2023-04-17T05:25:33.096Z,21.00
2023-04-17T05:26:33.082Z,21.00
2023-04-17T05:27:33.099Z,21.01
2023-04-17T05:28:33.110Z,21.00
2023-04-17T05:29:33.097Z,21.00
2023-04-17T05:30:33.086Z,21.00
2023-04-17T05:31:33.162Z,21.00
2023-04-17T05:32:33.103Z,21.00
2023-04-17T05:33:33.091Z,21.01
2023-04-17T05:34:33.103Z,21.00
2023-04-17T05:35:33.142Z,21.00
2023-04-17T05:36:33.119Z,21.00
2023-04-17T05:37:33.112Z,21.00
2023-04-17T05:38:33.136Z,21.01
2023-04-17T05:39:33.103Z,21.00
2023-04-17T05:40:33.142Z,21.00
2023-04-17T05:41:33.247Z,21.00
2023-04-17T05:42:33.114Z,21.01
2023-04-17T05:43:33.092Z,21.01
2023-04-17T05:44:33.140Z,21.01
2023-04-17T05:45:33.132Z,21.00
2023-04-17T05:46:33.216Z,21.01
2023-04-17T05:47:33.167Z,21.01
2023-04-17T05:48:33.130Z,21.00
2023-04-17T05:49:33.125Z,21.00
2023-04-17T05:50:33.125Z,21.00
2023-04-17T05:51:33.249Z,21.00
2023-04-17T05:52:33.156Z,21.00
2023-04-17T05:53:33.185Z,21.00
2023-04-17T05:54:33.178Z,21.00
2023-04-17T05:55:33.167Z,21.00
2023-04-17T05:56:33.245Z,21.01
2023-04-17T05:57:33.181Z,21.02
2023-04-17T05:58:33.174Z,21.05
2023-04-17T05:59:33.149Z,21.08
2023-04-17T06:00:33.152Z,21.16
2023-04-17T06:01:33.168Z,21.21
2023-04-17T06:02:33.349Z,21.28
2023-04-17T06:03:33.466Z,21.35
2023-04-17T06:04:33.669Z,21.40
2023-04-17T06:05:33.395Z,21.45
2023-04-17T06:06:33.379Z,21.49
2023-04-17T06:07:33.439Z,21.53
2023-04-17T06:08:33.476Z,21.59
2023-04-17T06:09:33.591Z,21.63
2023-04-17T06:10:33.609Z,21.68
2023-04-17T06:11:33.625Z,21.73
2023-04-17T06:12:33.649Z,21.77
2023-04-17T06:13:33.690Z,21.79
2023-04-17T06:14:33.721Z,21.83
2023-04-17T06:15:33.722Z,21.86
2023-04-17T06:16:33.863Z,21.89
2023-04-17T06:17:33.907Z,21.90
2023-04-17T06:18:33.807Z,21.93
2023-04-17T06:19:33.848Z,21.96
2023-04-17T06:20:33.878Z,21.99
2023-04-17T06:21:33.868Z,22.00
2023-04-17T06:22:33.872Z,22.03
2023-04-17T06:23:33.858Z,22.05
2023-04-17T06:24:33.866Z,22.06
2023-04-17T06:25:33.881Z,22.08
2023-04-17T06:26:34.228Z,22.10
2023-04-17T06:27:36.382Z,22.11
2023-04-17T06:28:33.901Z,22.13
2023-04-17T06:29:33.876Z,22.15
2023-04-17T06:30:33.976Z,22.17
2023-04-17T06:31:33.911Z,22.18
2023-04-17T06:32:33.882Z,22.20
2023-04-17T06:33:33.896Z,22.21
2023-04-17T06:34:33.840Z,22.24
2023-04-17T06:35:33.829Z,22.25
2023-04-17T06:36:33.818Z,22.27
2023-04-17T06:37:33.830Z,22.28
2023-04-17T06:38:33.797Z,22.30
2023-04-17T06:39:33.799Z,22.31
2023-04-17T06:40:33.810Z,22.32
2023-04-17T06:41:33.767Z,22.34
2023-04-17T06:42:33.805Z,22.35
2023-04-17T06:43:33.755Z,22.36
2023-04-17T06:44:33.770Z,22.37
2023-04-17T06:45:33.783Z,22.36
2023-04-17T06:46:34.271Z,22.37
2023-04-17T06:47:33.808Z,22.39
2023-04-17T06:48:33.721Z,22.40
2023-04-17T06:49:33.744Z,22.41
2023-04-17T06:50:33.699Z,22.43
2023-04-17T06:51:33.693Z,22.43
2023-04-17T06:52:33.741Z,22.42
2023-04-17T06:53:33.699Z,22.41
2023-04-17T06:54:33.672Z,22.39
2023-04-17T06:55:33.715Z,22.36
2023-04-17T06:56:33.695Z,22.33
2023-04-17T06:57:33.662Z,22.32
2023-04-17T06:58:33.649Z,22.29
2023-04-17T06:59:33.660Z,22.28
2023-04-17T07:00:33.652Z,22.24
2023-04-17T07:01:33.656Z,22.24
2023-04-17T07:02:33.722Z,22.21
2023-04-17T07:03:33.983Z,22.20
2023-04-17T07:04:33.669Z,22.19
2023-04-17T07:05:33.609Z,22.19
2023-04-17T07:06:33.606Z,22.18
2023-04-17T07:07:33.600Z,22.17
2023-04-17T07:08:33.609Z,22.18
2023-04-17T07:09:33.579Z,22.20
2023-04-17T07:10:33.566Z,22.20
2023-04-17T07:11:33.579Z,22.21
2023-04-17T07:12:33.678Z,22.23
2023-04-17T07:13:33.564Z,22.24
2023-04-17T07:14:33.608Z,22.24
2023-04-17T07:15:33.616Z,22.26
2023-04-17T07:16:33.578Z,22.26
2023-04-17T07:17:33.574Z,22.26
2023-04-17T07:18:33.521Z,22.27
2023-04-17T07:19:33.549Z,22.28
2023-04-17T07:20:33.505Z,22.29
2023-04-17T07:21:33.499Z,22.30
2023-04-17T07:22:33.498Z,22.31
2023-04-17T07:23:33.471Z,22.32
2023-04-17T07:24:33.477Z,22.33
2023-04-17T07:25:33.509Z,22.34
2023-04-17T07:26:33.475Z,22.34
2023-04-17T07:27:33.463Z,22.35
2023-04-17T07:28:33.452Z,22.37
2023-04-17T07:29:33.437Z,22.38
2023-04-17T07:30:33.442Z,22.39
2023-04-17T07:31:33.447Z,22.40
2023-04-17T07:32:33.439Z,22.40
2023-04-17T07:33:33.429Z,22.41
2023-04-17T07:34:33.407Z,22.42
2023-04-17T07:35:33.408Z,22.43
2023-04-17T07:36:33.388Z,22.44
2023-04-17T07:37:33.413Z,22.45
2023-04-17T07:38:33.401Z,22.47
2023-04-17T07:39:33.358Z,22.48
2023-04-17T07:40:33.375Z,22.46
2023-04-17T07:41:33.370Z,22.48
2023-04-17T07:42:33.765Z,22.49
2023-04-17T07:43:33.366Z,22.48
2023-04-17T07:44:33.585Z,22.50
2023-04-17T07:45:33.432Z,22.50
2023-04-17T07:46:33.511Z,22.52
2023-04-17T07:47:33.834Z,22.58
2023-04-17T07:48:33.596Z,22.62
2023-04-17T07:49:33.630Z,22.66
2023-04-17T07:50:33.667Z,22.69
2023-04-17T07:51:33.707Z,22.71
2023-04-17T07:52:33.834Z,22.73
2023-04-17T07:53:33.834Z,22.75
2023-04-17T07:54:33.881Z,22.77
2023-04-17T07:55:33.881Z,22.80
2023-04-17T07:56:33.920Z,22.81
2023-04-17T07:57:33.964Z,22.82
2023-04-17T07:58:33.988Z,22.83
2023-04-17T07:59:34.024Z,22.84
2023-04-17T08:00:34.041Z,22.84
2023-04-17T08:01:34.085Z,22.85
2023-04-17T08:02:34.174Z,22.86
2023-04-17T08:03:34.460Z,22.87
2023-04-17T08:04:34.443Z,22.88
2023-04-17T08:05:34.177Z,22.89
2023-04-17T08:06:34.183Z,22.88
2023-04-17T08:07:34.243Z,22.89
2023-04-17T08:08:34.251Z,22.87
2023-04-17T08:09:34.274Z,22.88
2023-04-17T08:10:34.319Z,22.88
2023-04-17T08:11:40.156Z,22.90
2023-04-17T08:12:35.778Z,22.91
2023-04-17T08:13:34.377Z,22.92
2023-04-17T08:14:34.331Z,22.94
2023-04-17T08:15:34.293Z,22.96
2023-04-17T08:16:34.528Z,22.98
2023-04-17T08:17:34.488Z,22.99
2023-04-17T08:18:34.313Z,23.00
2023-04-17T08:19:34.278Z,22.99
2023-04-17T08:20:34.268Z,22.99
2023-04-17T08:21:34.288Z,23.02
2023-04-17T08:22:34.263Z,23.03
2023-04-17T08:23:34.284Z,23.05
2023-04-17T08:24:34.257Z,23.06
2023-04-17T08:25:34.240Z,23.07
2023-04-17T08:26:34.212Z,23.09
2023-04-17T08:27:34.235Z,23.10
2023-04-17T08:28:34.250Z,23.12
2023-04-17T08:29:41.526Z,23.12
2023-04-17T08:30:34.205Z,23.11
2023-04-17T08:31:34.229Z,23.12
2023-04-17T08:32:34.369Z,23.12
2023-04-17T08:33:34.177Z,23.10
2023-04-17T08:34:34.186Z,23.08
2023-04-17T08:35:34.182Z,23.08
2023-04-17T08:36:34.139Z,23.08
2023-04-17T08:37:34.293Z,23.06
2023-04-17T08:38:34.142Z,23.05
2023-04-17T08:39:34.142Z,23.05
2023-04-17T08:40:34.150Z,23.04
2023-04-17T08:41:34.155Z,23.02
2023-04-17T08:42:34.121Z,23.01
2023-04-17T08:43:34.082Z,22.99
2023-04-17T08:44:34.096Z,22.97
2023-04-17T08:45:34.090Z,22.96
2023-04-17T08:46:34.108Z,22.94
2023-04-17T08:47:34.407Z,22.92
2023-04-17T08:48:34.124Z,22.90
2023-04-17T08:49:34.082Z,22.90
2023-04-17T08:50:34.088Z,22.87
2023-04-17T08:51:34.064Z,22.84
2023-04-17T08:52:34.329Z,22.83
2023-04-17T08:53:34.080Z,22.80
2023-04-17T08:54:34.044Z,22.74
2023-04-17T08:55:34.042Z,22.69
2023-04-17T08:56:34.039Z,22.62
2023-04-17T08:57:34.008Z,22.57
2023-04-17T08:58:34.036Z,22.49
2023-04-17T08:59:34.035Z,22.46
2023-04-17T09:00:34.012Z,22.42
2023-04-17T09:01:34.106Z,22.40
2023-04-17T09:02:34.040Z,22.37
2023-04-17T09:03:34.170Z,22.36
2023-04-17T09:04:34.124Z,22.33
2023-04-17T09:05:33.985Z,22.30
2023-04-17T09:06:33.972Z,22.29
2023-04-17T09:07:34.345Z,22.28
2023-04-17T09:08:33.949Z,22.26
2023-04-17T09:09:33.973Z,22.24
2023-04-17T09:10:33.923Z,22.20
2023-04-17T09:11:33.910Z,22.17
2023-04-17T09:12:33.926Z,22.18
2023-04-17T09:13:33.939Z,22.20
2023-04-17T09:14:33.924Z,22.25
2023-04-17T09:15:34.002Z,22.29
2023-04-17T09:16:33.926Z,22.37
2023-04-17T09:17:33.891Z,22.43
2023-04-17T09:18:33.942Z,22.51
2023-04-17T09:19:35.197Z,22.54
2023-04-17T09:20:34.060Z,22.59
2023-04-17T09:21:34.061Z,22.65
2023-04-17T09:22:34.117Z,22.70
2023-04-17T09:23:34.227Z,22.73
2023-04-17T09:24:34.188Z,22.77
2023-04-17T09:25:34.204Z,22.81
2023-04-17T09:26:34.229Z,22.82
2023-04-17T09:27:34.382Z,22.86
2023-04-17T09:28:34.277Z,22.89
2023-04-17T09:29:34.280Z,22.90
2023-04-17T09:30:34.520Z,22.92
2023-04-17T09:31:34.467Z,22.94
2023-04-17T09:32:34.397Z,22.95
2023-04-17T09:33:34.290Z,22.96
2023-04-17T09:34:34.337Z,22.96
2023-04-17T09:35:35.836Z,22.97
2023-04-17T09:36:34.413Z,22.98
2023-04-17T09:37:34.295Z,22.98
2023-04-17T09:38:34.301Z,23.00
2023-04-17T09:39:34.287Z,23.00
2023-04-17T09:40:34.308Z,23.00
2023-04-17T09:41:34.307Z,23.00
2023-04-17T09:42:34.373Z,22.99
2023-04-17T09:43:34.253Z,22.98
2023-04-17T09:44:34.303Z,22.97
2023-04-17T09:45:34.243Z,22.96
2023-04-17T09:46:34.370Z,22.95
2023-04-17T09:47:34.391Z,22.94
2023-04-17T09:48:34.213Z,22.92
2023-04-17T09:49:34.248Z,22.91
2023-04-17T09:50:35.882Z,22.89
2023-04-17T09:51:34.217Z,22.88
2023-04-17T09:52:34.236Z,22.86
2023-04-17T09:53:34.181Z,22.86
2023-04-17T09:54:34.205Z,22.85
2023-04-17T09:55:34.179Z,22.84
2023-04-17T09:56:34.199Z,22.82
2023-04-17T09:57:34.169Z,22.82
2023-04-17T09:58:34.160Z,22.82
2023-04-17T09:59:34.161Z,22.81
2023-04-17T10:00:34.187Z,22.80
2023-04-17T10:01:34.146Z,22.80
2023-04-17T10:02:34.220Z,22.78
2023-04-17T10:03:37.128Z,22.77
2023-04-17T10:04:34.141Z,22.76
2023-04-17T10:05:34.113Z,22.74
2023-04-17T10:06:34.202Z,22.74
2023-04-17T10:07:34.145Z,22.73
2023-04-17T10:08:34.268Z,22.73
2023-04-17T10:09:34.090Z,22.72
2023-04-17T10:10:34.366Z,22.70
2023-04-17T10:11:34.126Z,22.69
2023-04-17T10:12:34.896Z,22.68
2023-04-17T10:13:34.062Z,22.66
2023-04-17T10:14:34.094Z,22.66
2023-04-17T10:15:34.112Z,22.65
2023-04-17T10:16:34.125Z,22.64
2023-04-17T10:17:34.506Z,22.64
2023-04-17T10:18:34.045Z,22.62
2023-04-17T10:19:34.041Z,22.61
2023-04-17T10:20:33.997Z,22.60
2023-04-17T10:21:34.000Z,22.59
2023-04-17T10:22:34.014Z,22.58
2023-04-17T10:23:33.970Z,22.58
2023-04-17T10:24:33.989Z,22.57
2023-04-17T10:25:33.985Z,22.56
2023-04-17T10:26:33.953Z,22.55
2023-04-17T10:27:33.996Z,22.54
2023-04-17T10:28:33.963Z,22.55
2023-04-17T10:29:33.976Z,22.53
2023-04-17T10:30:33.977Z,22.53
2023-04-17T10:31:34.026Z,22.53
2023-04-17T10:32:34.004Z,22.51
2023-04-17T10:33:33.924Z,22.51
2023-04-17T10:34:33.917Z,22.51
2023-04-17T10:35:33.944Z,22.49
2023-04-17T10:36:33.945Z,22.49
2023-04-17T10:37:34.357Z,22.43
2023-04-17T10:38:33.980Z,22.46
2023-04-17T10:39:34.094Z,22.46
2023-04-17T10:40:34.127Z,22.44
2023-04-17T10:41:34.158Z,22.45
2023-04-17T10:42:34.216Z,22.48
2023-04-17T10:43:34.283Z,22.51
2023-04-17T10:44:34.351Z,22.55
2023-04-17T10:45:34.371Z,22.57
2023-04-17T10:46:34.487Z,22.59
2023-04-17T10:47:34.507Z,22.59
2023-04-17T10:48:34.534Z,22.60
2023-04-17T10:49:34.552Z,22.61
2023-04-17T10:50:35.358Z,22.62
2023-04-17T10:51:34.639Z,22.63
2023-04-17T10:52:34.861Z,22.64
2023-04-17T10:53:34.761Z,22.65
2023-04-17T10:54:34.784Z,22.65
2023-04-17T10:55:34.811Z,22.67
2023-04-17T10:56:34.858Z,22.67
2023-04-17T10:57:34.919Z,22.68
2023-04-17T10:58:34.952Z,22.68
2023-04-17T10:59:35.865Z,22.68
2023-04-17T11:00:35.045Z,22.68
2023-04-17T11:01:35.121Z,22.69
2023-04-17T11:02:35.179Z,22.69
2023-04-17T11:03:35.169Z,22.69
2023-04-17T11:04:35.296Z,22.70
2023-04-17T11:05:35.207Z,22.70
2023-04-17T11:06:35.258Z,22.70
2023-04-17T11:07:35.321Z,22.71
2023-04-17T11:08:35.326Z,22.70
2023-04-17T11:09:35.353Z,22.72
2023-04-17T11:10:35.366Z,22.71
2023-04-17T11:12:35.395Z,22.73
2023-04-17T11:13:35.353Z,22.73
2023-04-17T11:14:35.363Z,22.73
2023-04-17T11:15:35.360Z,22.73
2023-04-17T11:16:35.355Z,22.74
2023-04-17T11:17:35.400Z,22.75
2023-04-17T11:18:35.366Z,22.75
2023-04-17T11:19:35.341Z,22.75
2023-04-17T11:20:35.319Z,22.75
2023-04-17T11:21:35.316Z,22.75
2023-04-17T11:22:35.308Z,22.76
2023-04-17T11:23:35.309Z,22.76
2023-04-17T11:24:35.304Z,22.77
2023-04-17T11:25:35.310Z,22.77
2023-04-17T11:26:35.283Z,22.77
2023-04-17T11:27:35.286Z,22.76
2023-04-17T11:28:35.313Z,22.75
2023-04-17T11:29:35.253Z,22.76
2023-04-17T11:30:35.375Z,22.75
2023-04-17T11:31:35.388Z,22.75
2023-04-17T11:32:35.409Z,22.74
2023-04-17T11:33:35.890Z,22.71
2023-04-17T11:34:35.440Z,22.69
2023-04-17T11:35:35.473Z,22.67
2023-04-17T11:36:35.538Z,22.68
2023-04-17T11:37:35.553Z,22.68
2023-04-17T11:38:35.880Z,22.69
2023-04-17T11:39:35.647Z,22.68
2023-04-17T11:40:35.711Z,22.67
2023-04-17T11:41:35.725Z,22.66
2023-04-17T11:42:35.768Z,22.65
2023-04-17T11:43:35.783Z,22.65
2023-04-17T11:44:35.819Z,22.65
2023-04-17T11:45:35.874Z,22.63
2023-04-17T11:46:35.991Z,22.62
2023-04-17T11:47:36.019Z,22.62
2023-04-17T11:48:36.389Z,22.61
2023-04-17T11:49:36.080Z,22.60
2023-04-17T11:50:36.206Z,22.60
2023-04-17T11:51:36.135Z,22.59
2023-04-17T11:52:36.193Z,22.59
2023-04-17T11:53:36.279Z,22.59
2023-04-17T11:54:36.284Z,22.59
2023-04-17T11:55:36.362Z,22.59
2023-04-17T11:56:36.408Z,22.59
2023-04-17T11:57:36.441Z,22.59
2023-04-17T11:58:36.485Z,22.59
2023-04-17T11:59:36.516Z,22.60
2023-04-17T12:00:36.612Z,22.61
2023-04-17T12:01:36.595Z,22.60
2023-04-17T12:02:36.697Z,22.61
2023-04-17T12:03:37.174Z,22.61
2023-04-17T12:04:37.111Z,22.62
2023-04-17T12:05:36.806Z,22.63
2023-04-17T12:06:36.835Z,22.63
2023-04-17T12:07:36.888Z,22.63
2023-04-17T12:08:36.895Z,22.64
2023-04-17T12:09:36.944Z,22.64
2023-04-17T12:10:36.991Z,22.65
2023-04-17T12:11:37.040Z,22.67
2023-04-17T12:12:37.071Z,22.66
2023-04-17T12:13:37.092Z,22.67
2023-04-17T12:14:37.157Z,22.66
2023-04-17T12:15:37.166Z,22.67
2023-04-17T12:16:37.357Z,22.67
2023-04-17T12:17:37.297Z,22.67
2023-04-17T12:18:37.317Z,22.66
2023-04-17T12:19:37.324Z,22.66
2023-04-17T12:20:37.388Z,22.65
2023-04-17T12:21:37.451Z,22.64
2023-04-17T12:22:37.465Z,22.64
2023-04-17T12:23:37.512Z,22.62
2023-04-17T12:24:37.525Z,22.63
2023-04-17T12:25:37.583Z,22.62
2023-04-17T12:26:37.659Z,22.61
2023-04-17T12:27:37.839Z,22.62
2023-04-17T12:28:37.731Z,22.62
2023-04-17T12:30:38.778Z,22.61
2023-04-17T12:31:37.831Z,22.61
2023-04-17T12:32:37.836Z,22.61
2023-04-17T12:33:37.737Z,22.61
2023-04-17T12:34:37.745Z,22.61
2023-04-17T12:35:37.742Z,22.61
2023-04-17T12:36:37.739Z,22.60
2023-04-17T12:37:37.733Z,22.59
2023-04-17T12:38:37.717Z,22.58
2023-04-17T12:39:37.730Z,22.58
2023-04-17T12:40:37.785Z,22.58
2023-04-17T12:41:37.805Z,22.57
2023-04-17T12:42:48.359Z,22.56
2023-04-17T12:43:38.858Z,22.56
2023-04-17T12:44:37.942Z,22.54
2023-04-17T12:45:38.337Z,22.54
2023-04-17T12:46:37.866Z,22.54
2023-04-17T12:47:37.844Z,22.53
2023-04-17T12:48:37.850Z,22.53
2023-04-17T12:49:37.819Z,22.53
2023-04-17T12:50:37.844Z,22.53
2023-04-17T12:51:38.077Z,22.52
2023-04-17T12:52:37.866Z,22.52
2023-04-17T12:53:37.926Z,22.51
2023-04-17T12:54:37.967Z,22.51